Weather History for Telluride, CO

Change the Weather History Date:

Monday, November 26, 2012

  Actual Average Record
Temperature  
Mean Temperature 36 °F -  
Max Temperature 44 °F 35 °F 48 °F (1998)
Min Temperature 28 °F 18 °F 8 °F (2001)
Degree Days  
Heating Degree Days 29    
Moisture  
Dew Point 1 °F    
Average Humidity 29    
Maximum Humidity 51    
Minimum Humidity 6    
Precipitation  
Precipitation 0.00 in - - ()
Sea Level Pressure  
Sea Level Pressure 30.25 in    
Wind  
Wind Speed 5 mph (SE)    
Max Wind Speed 14 mph    
Max Gust Speed 17 mph    
Visibility 10 miles    
Events      
Averages and records for this station are not official NWS values.
T = Trace of Precipitation, MM = Missing Value Source: NWS Daily Summary

Daily Weather History Graph

Daily Weather History Graph

Search for Another Location

Airport:

Trip Planner

Search our weather history database for the weather conditions in past years. The results will help you decide how hot, cold, wet, or windy it might be!

Date:

Astronomy

Nov. 26, 2012 Rise Set
Actual Time 7:04 AM MST 4:53 PM MST
Civil Twilight 6:35 AM MST 5:22 PM MST
Nautical Twilight 6:03 AM MST 5:54 PM MST
Astronomical Twilight 5:31 AM MST 6:26 PM MST
Moon 3:47 PM MST (11/26) 5:18 AM MST (11/26)
Length of Visible Light 10h 46m
Length of Day
9h 49m
Waxing Gibbous, 97% of the Moon is Illuminated
Nov 26
Waxing Gibbous
Nov 28
Full
Dec 6
Last Quarter
Dec 13
New
Dec 19
First Quarter

Hourly Weather History & Observations

Time (MST) Temp. Windchill Dew Point Humidity Pressure Visibility Wind Dir Wind Speed Gust Speed Precip Events Conditions
12:15 AM 30.2 °F 23.4 °F 12.2 °F 47% 30.12 in 10.0 mi SE 6.9 mph - N/A   Scattered Clouds
12:35 AM 30.2 °F - 12.2 °F 47% 30.13 in 10.0 mi Calm Calm - N/A   Scattered Clouds
12:55 AM 30.2 °F 24.3 °F 12.2 °F 47% 30.13 in 10.0 mi East 5.8 mph - N/A   Scattered Clouds
1:15 AM 30.2 °F 24.3 °F 12.2 °F 47% 30.13 in 10.0 mi ESE 5.8 mph - N/A   Clear
1:35 AM 30.2 °F 26.7 °F 12.2 °F 47% 30.14 in 10.0 mi East 3.5 mph - N/A   Mostly Cloudy
1:55 AM 30.2 °F 25.4 °F 10.4 °F 44% 30.14 in 10.0 mi SE 4.6 mph - N/A   Overcast
2:15 AM 30.2 °F 25.4 °F 12.2 °F 47% 30.14 in 10.0 mi SE 4.6 mph - N/A   Overcast
2:35 AM 30.2 °F 25.4 °F 12.2 °F 47% 30.14 in 10.0 mi SE 4.6 mph - N/A   Scattered Clouds
2:55 AM 30.2 °F 25.4 °F 10.4 °F 44% 30.16 in 10.0 mi ESE 4.6 mph - N/A   Clear
3:15 AM 30.2 °F 24.3 °F 12.2 °F 47% 30.15 in 10.0 mi SE 5.8 mph - N/A   Clear
3:35 AM 28.4 °F 22.2 °F 12.2 °F 51% 30.15 in 10.0 mi SE 5.8 mph - N/A   Clear
3:55 AM 30.2 °F 24.3 °F 12.2 °F 47% 30.15 in 10.0 mi SSE 5.8 mph - N/A   Clear
4:15 AM 30.2 °F 24.3 °F 12.2 °F 47% 30.15 in 10.0 mi SE 5.8 mph - N/A   Clear
4:35 AM 28.4 °F 22.2 °F 12.2 °F 51% 30.15 in 10.0 mi ESE 5.8 mph - N/A   Clear
4:55 AM 28.4 °F 23.3 °F 12.2 °F 51% 30.15 in 10.0 mi East 4.6 mph - N/A   Clear
5:15 AM 30.2 °F 23.4 °F 12.2 °F 47% 30.16 in 10.0 mi SE 6.9 mph - N/A   Clear
5:35 AM 30.2 °F 24.3 °F 12.2 °F 47% 30.16 in 10.0 mi ESE 5.8 mph - N/A   Clear
5:55 AM 30.2 °F 25.4 °F 10.4 °F 44% 30.18 in 10.0 mi ESE 4.6 mph - N/A   Clear
6:15 AM 28.4 °F 22.2 °F 12.2 °F 51% 30.18 in 10.0 mi SE 5.8 mph - N/A   Clear
6:35 AM 28.4 °F 21.2 °F 12.2 °F 51% 30.18 in 10.0 mi SE 6.9 mph - N/A   Clear
6:55 AM 28.4 °F 21.2 °F 12.2 °F 51% 30.19 in 10.0 mi ESE 6.9 mph - N/A   Clear
7:15 AM 28.4 °F 22.2 °F 12.2 °F 51% 30.20 in 10.0 mi ESE 5.8 mph - N/A   Clear
7:35 AM 28.4 °F 21.2 °F 12.2 °F 51% 30.20 in 10.0 mi East 6.9 mph - N/A   Clear
7:55 AM 30.2 °F 25.4 °F 12.2 °F 47% 30.21 in 10.0 mi SE 4.6 mph - N/A   Clear
8:15 AM 32.0 °F 27.5 °F 12.2 °F 44% 30.22 in 10.0 mi SE 4.6 mph - N/A   Clear
8:35 AM 32.0 °F 27.5 °F 12.2 °F 44% 30.23 in 10.0 mi SE 4.6 mph - N/A   Clear
8:55 AM 32.0 °F 28.7 °F 12.2 °F 44% 30.24 in 10.0 mi ESE 3.5 mph - N/A   Clear
9:15 AM 33.8 °F 30.8 °F 12.2 °F 41% 30.25 in 10.0 mi ESE 3.5 mph - N/A   Clear
9:35 AM 35.6 °F - 12.2 °F 38% 30.25 in 10.0 mi Calm Calm - N/A   Clear
9:55 AM 35.6 °F - 12.2 °F 38% 30.26 in 10.0 mi Calm Calm - N/A   Clear
10:15 AM 37.4 °F - 10.4 °F 33% 30.26 in 10.0 mi Calm Calm - N/A   Clear
10:35 AM 39.2 °F - 10.4 °F 31% 30.26 in 10.0 mi Calm Calm - N/A   Clear
10:55 AM 41.0 °F - 10.4 °F 29% 30.26 in 10.0 mi Calm Calm - N/A   Clear
11:15 AM 42.8 °F - 5.0 °F 21% 30.26 in 10.0 mi Calm Calm - N/A   Clear
11:35 AM 44.6 °F 43.1 °F 1.4 °F 17% 30.25 in 10.0 mi WSW 3.5 mph - N/A   Clear
11:55 AM 44.6 °F 41.4 °F -9.4 °F 10% 30.25 in 10.0 mi West 5.8 mph - N/A   Clear
12:15 PM 44.6 °F 39.2 °F -13.0 °F 9% 30.25 in 10.0 mi West 10.4 mph - N/A   Clear
12:35 PM 44.6 °F 38.1 °F -9.4 °F 10% 30.25 in 10.0 mi West 13.8 mph - N/A   Clear
12:55 PM 44.6 °F 39.2 °F -7.6 °F 11% 30.24 in 10.0 mi WSW 10.4 mph - N/A   Clear
1:15 PM 44.6 °F 39.7 °F -7.6 °F 11% 30.24 in 10.0 mi WSW 9.2 mph - N/A   Clear
1:35 PM 44.6 °F 38.8 °F -5.8 °F 12% 30.24 in 10.0 mi WSW 11.5 mph 16.1 mph N/A   Clear
1:55 PM 44.6 °F 39.7 °F -9.4 °F 10% 30.24 in 10.0 mi WSW 9.2 mph - N/A   Clear
2:15 PM 44.6 °F 39.2 °F -11.2 °F 9% 30.24 in 10.0 mi West 10.4 mph - N/A   Clear
2:35 PM 44.6 °F 38.4 °F -13.0 °F 9% 30.25 in 10.0 mi West 12.7 mph 17.3 mph N/A   Clear
2:55 PM 44.6 °F 39.2 °F -11.2 °F 9% 30.25 in 10.0 mi West 10.4 mph - N/A   Clear
3:15 PM 44.6 °F 38.8 °F -13.0 °F 9% 30.26 in 10.0 mi West 11.5 mph - N/A   Clear
3:35 PM 42.8 °F 36.6 °F -16.6 °F 8% 30.26 in 10.0 mi West 11.5 mph - N/A   Clear
3:55 PM 42.8 °F 36.6 °F -20.2 °F 6% 30.26 in 10.0 mi West 11.5 mph - N/A   Clear
4:15 PM 42.8 °F 37.5 °F -18.4 °F 7% 30.28 in 10.0 mi West 9.2 mph - N/A   Clear
4:35 PM 41.0 °F 35.8 °F -20.2 °F 7% 30.28 in 10.0 mi West 8.1 mph - N/A   Clear
4:55 PM 41.0 °F 35.8 °F -18.4 °F 8% 30.28 in 10.0 mi West 8.1 mph - N/A   Clear
5:15 PM 39.2 °F 35.9 °F -18.4 °F 8% 30.29 in 10.0 mi SW 4.6 mph - N/A   Clear
5:35 PM 37.4 °F - -14.8 °F 10% 30.30 in 10.0 mi Calm Calm - N/A   Clear
5:55 PM 35.6 °F - -9.4 °F 14% 30.31 in 10.0 mi Calm Calm - N/A   Clear
6:15 PM 35.6 °F - -11.2 °F 13% 30.31 in 10.0 mi Calm Calm - N/A   Clear
6:35 PM 32.0 °F 28.7 °F -11.2 °F 15% 30.32 in 10.0 mi East 3.5 mph - N/A   Clear
6:55 PM 32.0 °F 25.6 °F -9.4 °F 17% 30.33 in 10.0 mi ESE 6.9 mph - N/A   Clear
7:15 PM 32.0 °F 26.4 °F -7.6 °F 18% 30.33 in 10.0 mi SE 5.8 mph - N/A   Clear
7:35 PM 32.0 °F 26.4 °F -9.4 °F 17% 30.33 in 10.0 mi East 5.8 mph - N/A   Clear
7:55 PM 32.0 °F 26.4 °F -4.0 °F 21% 30.33 in 10.0 mi SE 5.8 mph - N/A   Clear
8:15 PM 32.0 °F 25.6 °F -4.0 °F 21% 30.34 in 10.0 mi SE 6.9 mph - N/A   Clear
8:35 PM 30.2 °F 22.6 °F -4.0 °F 23% 30.35 in 10.0 mi ESE 8.1 mph - N/A   Clear
8:55 PM 30.2 °F 23.4 °F -4.0 °F 23% 30.35 in 10.0 mi ESE 6.9 mph - N/A   Clear
9:15 PM 30.2 °F 25.4 °F -4.0 °F 23% 30.35 in 10.0 mi East 4.6 mph - N/A   Clear
9:35 PM 30.2 °F 23.4 °F -5.8 °F 21% - 10.0 mi ESE 6.9 mph - N/A   Clear
9:55 PM 30.2 °F 23.4 °F -5.8 °F 21% 30.37 in 10.0 mi SE 6.9 mph - N/A   Clear
10:15 PM 28.4 °F 20.4 °F -4.0 °F 25% 30.37 in 10.0 mi SE 8.1 mph - N/A   Clear
10:35 PM 30.2 °F 25.4 °F -5.8 °F 21% 30.37 in 10.0 mi ESE 4.6 mph - N/A   Clear
10:55 PM 28.4 °F 21.2 °F -5.8 °F 23% 30.38 in 10.0 mi ESE 6.9 mph - N/A   Clear
11:15 PM 30.2 °F - -7.6 °F 19% 30.38 in 10.0 mi Calm Calm - N/A   Clear
11:35 PM 28.4 °F 23.3 °F -5.8 °F 23% 30.38 in 10.0 mi SE 4.6 mph - N/A   Clear
11:55 PM 28.4 °F 20.4 °F -5.8 °F 23% 30.38 in 10.0 mi SE 8.1 mph - N/A   Clear